Avoca, Michigan
Current Conditions -  °F | °C
As of 7:36 AM on Saturday 25 Oct 2014 (Local Time) from KPHN Reporting Station
Haze Haze  
Wind Chill: 46°   Ceiling: 7000
Heat Index: 48°   Visibility: 5mi
Dew Point: 48°   Wind: 5mph
Humidity: 100%   Direction: 210°SSW
Pressure: 29.81"   Gusts: NA
Location:  43.06°N, 82.69°W
Report Text: KPHN 251136Z AUTO 21004KT 5SM BR OVC070 09/09 A2981 RMK AO2
Loading
Personal Weather Stations






























Interactive Weather Map New forecast layout! Learn more

10-Day Weather Forecast

Advertisements
Track Severe Weather on mobile